createdAt,value
2019-03-09T00:01:58.922Z,98849.87
2019-03-09T00:04:25.731Z,98855.40
2019-03-09T00:06:52.486Z,98850.93
2019-03-09T00:09:19.190Z,98846.39
2019-03-09T00:11:46.153Z,98852.44
2019-03-09T00:14:13.973Z,98857.69
2019-03-09T00:16:40.698Z,98863.54
2019-03-09T00:19:07.414Z,98851.98
2019-03-09T00:21:34.177Z,98861.98
2019-03-09T00:24:17.856Z,98863.98
2019-03-09T00:27:07.217Z,98853.73
2019-03-09T00:29:52.395Z,98848.94
2019-03-09T00:32:21.995Z,98843.89
2019-03-09T00:34:49.062Z,98848.06
2019-03-09T00:37:15.879Z,98852.14
2019-03-09T00:39:42.588Z,98834.22
2019-03-09T00:42:09.353Z,98835.02
2019-03-09T00:44:36.198Z,98828.69
2019-03-09T00:47:02.975Z,98813.71
2019-03-09T00:49:33.137Z,98826.58
2019-03-09T00:52:00.122Z,98831.07
2019-03-09T00:54:26.969Z,98833.12
2019-03-09T00:56:53.693Z,98821.56
2019-03-09T00:59:20.562Z,98819.22
2019-03-09T01:01:47.446Z,98821.08
2019-03-09T01:04:14.157Z,98805.25
2019-03-09T01:06:40.871Z,98817.66
2019-03-09T01:09:08.594Z,98801.84
2019-03-09T01:11:35.352Z,98811.64
2019-03-09T01:14:02.076Z,98808.72
2019-03-09T01:16:29.141Z,98819.30
2019-03-09T01:18:55.856Z,98803.98
2019-03-09T01:21:22.605Z,98826.42
2019-03-09T01:23:49.341Z,98811.41
2019-03-09T01:26:16.084Z,98801.91
2019-03-09T01:28:42.825Z,98798.22
2019-03-09T01:31:09.541Z,98810.31
2019-03-09T01:33:36.409Z,98787.42
2019-03-09T01:36:03.140Z,98826.13
2019-03-09T01:38:29.874Z,98776.39
2019-03-09T01:40:56.570Z,98755.55
2019-03-09T01:43:23.277Z,98766.34
2019-03-09T01:45:49.981Z,98750.81
2019-03-09T01:48:16.729Z,98756.04
2019-03-09T01:50:43.474Z,98748.94
2019-03-09T01:53:10.635Z,98742.35
2019-03-09T01:55:37.480Z,98751.58
2019-03-09T01:58:04.241Z,98741.83
2019-03-09T02:00:30.961Z,98728.66
2019-03-09T02:02:57.703Z,98728.36
2019-03-09T02:05:24.438Z,98730.52
2019-03-09T02:07:51.185Z,98727.87
2019-03-09T02:10:17.922Z,98733.92
2019-03-09T02:12:44.609Z,98725.23
2019-03-09T02:15:11.476Z,98721.02
2019-03-09T02:17:38.242Z,98726.02
2019-03-09T02:20:05.116Z,98719.13
2019-03-09T02:22:31.827Z,98712.27
2019-03-09T02:24:58.531Z,98720.16
2019-03-09T02:27:25.347Z,98720.70
2019-03-09T02:29:52.052Z,98714.87
2019-03-09T02:32:18.782Z,98703.63
2019-03-09T02:34:45.517Z,98710.40
2019-03-09T02:37:15.270Z,98704.63
2019-03-09T02:39:50.085Z,98703.61
2019-03-09T02:42:16.816Z,98697.55
2019-03-09T02:44:43.560Z,98700.17
2019-03-09T02:47:10.563Z,98708.34
2019-03-09T02:49:37.278Z,98704.63
2019-03-09T02:52:04.161Z,98697.00
2019-03-09T02:54:30.873Z,98695.14
2019-03-09T02:56:57.626Z,98687.77
2019-03-09T02:59:24.340Z,98697.29
2019-03-09T03:02:01.739Z,98676.19
2019-03-09T03:04:29.124Z,98674.34
2019-03-09T03:06:55.859Z,98664.30
2019-03-09T03:09:22.646Z,98671.13
2019-03-09T03:11:49.401Z,98671.34
2019-03-09T03:14:16.115Z,98674.48
2019-03-09T03:16:42.856Z,98669.91
2019-03-09T03:19:09.588Z,98671.77
2019-03-09T03:21:36.360Z,98681.48
2019-03-09T03:24:03.114Z,98682.44
2019-03-09T03:26:32.164Z,98634.36
2019-03-09T03:28:58.898Z,98682.05
2019-03-09T03:31:26.226Z,98679.61
2019-03-09T03:33:53.264Z,98684.92
2019-03-09T03:36:20.017Z,98665.85
2019-03-09T03:38:46.784Z,98690.05
2019-03-09T03:41:15.308Z,98685.00
2019-03-09T03:43:42.075Z,98692.61
2019-03-09T03:46:08.826Z,98692.41
2019-03-09T03:48:36.701Z,98702.55
2019-03-09T03:51:03.462Z,98703.09
2019-03-09T03:53:30.827Z,98703.38
2019-03-09T03:55:57.563Z,98689.37
2019-03-09T03:58:24.319Z,98694.95
2019-03-09T04:00:51.013Z,98691.55
2019-03-09T04:03:17.746Z,98695.50
2019-03-09T04:05:44.493Z,98684.70
2019-03-09T04:08:11.191Z,98701.55
2019-03-09T04:10:39.843Z,98684.38
2019-03-09T04:13:06.553Z,98702.04
2019-03-09T04:15:33.272Z,98687.81
2019-03-09T04:18:00.329Z,98705.35
2019-03-09T04:20:27.086Z,98698.21
2019-03-09T04:22:53.838Z,98690.13
2019-03-09T04:25:20.508Z,98693.98
2019-03-09T04:27:47.251Z,98694.50
2019-03-09T04:30:13.986Z,98695.46
2019-03-09T04:32:40.712Z,98705.11
2019-03-09T04:35:07.431Z,98710.84
2019-03-09T04:37:34.523Z,98707.86
2019-03-09T04:40:01.344Z,98714.78
2019-03-09T04:42:28.098Z,98724.27
2019-03-09T04:44:55.491Z,98710.27
2019-03-09T04:47:22.216Z,98699.31
2019-03-09T04:49:48.916Z,98715.72
2019-03-09T04:52:17.875Z,98726.29
2019-03-09T04:54:44.600Z,98726.39
2019-03-09T04:57:11.310Z,98717.03
2019-03-09T04:59:38.035Z,98726.45
2019-03-09T05:02:04.739Z,98722.06
2019-03-09T05:04:38.920Z,98715.20
2019-03-09T05:07:05.617Z,98702.73
2019-03-09T05:09:47.163Z,98712.16
2019-03-09T05:12:14.227Z,98712.41
2019-03-09T05:14:40.984Z,98727.19
2019-03-09T05:17:07.738Z,98727.19
2019-03-09T05:19:34.469Z,98719.91
2019-03-09T05:22:03.085Z,98709.88
2019-03-09T05:24:29.810Z,98722.45
2019-03-09T05:26:56.525Z,98704.17
2019-03-09T05:29:23.265Z,98699.69
2019-03-09T05:31:50.015Z,98704.41
2019-03-09T05:34:16.714Z,98695.66
2019-03-09T05:36:43.448Z,98697.58
2019-03-09T05:39:10.543Z,98731.52
2019-03-09T05:41:37.268Z,98729.63
2019-03-09T05:44:03.984Z,98698.37
2019-03-09T05:46:30.754Z,98710.01
2019-03-09T05:48:57.494Z,98722.19
2019-03-09T05:51:24.242Z,98716.61
2019-03-09T05:53:50.965Z,98719.97
2019-03-09T05:56:17.713Z,98724.52
2019-03-09T05:58:44.434Z,98726.86
2019-03-09T06:01:11.152Z,98727.16
2019-03-09T06:03:37.892Z,98723.02
2019-03-09T06:06:13.116Z,98737.02
2019-03-09T06:08:40.162Z,98735.33
2019-03-09T06:11:08.676Z,98748.98
2019-03-09T06:13:35.440Z,98761.88
2019-03-09T06:16:02.176Z,98759.56
2019-03-09T06:18:28.881Z,98743.05
2019-03-09T06:20:55.622Z,98747.84
2019-03-09T06:23:22.344Z,98752.02
2019-03-09T06:25:49.124Z,98757.53
2019-03-09T06:28:15.812Z,98766.55
2019-03-09T06:30:42.566Z,98764.72
2019-03-09T06:33:31.873Z,98772.44
2019-03-09T06:36:23.280Z,98768.48
2019-03-09T06:38:56.034Z,98769.52
2019-03-09T06:42:07.519Z,98783.98
2019-03-09T06:44:34.251Z,98786.84
2019-03-09T06:47:00.986Z,98781.13
2019-03-09T06:49:27.720Z,98765.63
2019-03-09T06:51:54.467Z,98769.12
2019-03-09T06:54:21.573Z,98768.38
2019-03-09T06:56:48.287Z,98783.95
2019-03-09T06:59:15.020Z,98766.54
2019-03-09T07:01:41.760Z,98774.80
2019-03-09T07:04:08.503Z,98768.48
2019-03-09T07:06:36.466Z,98775.83
2019-03-09T07:09:04.694Z,98783.77
2019-03-09T07:11:31.407Z,98782.22
2019-03-09T07:14:35.981Z,98798.55
2019-03-09T07:17:02.738Z,98815.71
2019-03-09T07:19:29.454Z,98827.50
2019-03-09T07:21:56.161Z,98835.63
2019-03-09T07:24:22.879Z,98832.53
2019-03-09T07:26:51.674Z,98832.88
2019-03-09T07:29:18.538Z,98840.84
2019-03-09T07:31:47.749Z,98818.50
2019-03-09T07:34:21.872Z,98826.09
2019-03-09T07:36:48.585Z,98824.23
2019-03-09T07:39:15.315Z,98837.95
2019-03-09T07:41:42.040Z,98842.22
2019-03-09T07:44:08.769Z,98841.18
2019-03-09T07:46:36.687Z,98850.67
2019-03-09T07:49:03.499Z,98832.70
2019-03-09T07:51:30.241Z,98846.94
2019-03-09T07:53:57.318Z,98859.09
2019-03-09T07:56:24.017Z,98869.34
2019-03-09T07:58:50.729Z,98876.19
2019-03-09T08:01:17.431Z,98873.65
2019-03-09T08:03:44.493Z,98879.51
2019-03-09T08:06:13.144Z,98889.03
2019-03-09T08:08:42.206Z,98883.73
2019-03-09T08:11:08.915Z,98896.63
2019-03-09T08:13:35.621Z,98885.78
2019-03-09T08:16:02.589Z,98888.20
2019-03-09T08:18:29.461Z,98870.31
2019-03-09T08:20:56.202Z,98871.63
2019-03-09T08:23:22.924Z,98878.00
2019-03-09T08:25:49.633Z,98870.94
2019-03-09T08:28:16.687Z,98868.11
2019-03-09T08:30:43.624Z,98873.65
2019-03-09T08:33:10.379Z,98885.00
2019-03-09T08:35:37.177Z,98891.34
2019-03-09T08:38:04.218Z,98884.80
2019-03-09T08:40:30.904Z,98875.75
2019-03-09T08:43:00.628Z,98878.17
2019-03-09T08:45:29.385Z,98943.53
2019-03-09T08:47:56.535Z,98886.34
2019-03-09T08:50:23.255Z,98913.42
2019-03-09T08:52:49.983Z,98924.59
2019-03-09T08:55:18.817Z,98926.97
2019-03-09T08:57:45.446Z,98925.41
2019-03-09T09:00:17.409Z,98922.70
2019-03-09T09:02:45.839Z,98942.00
2019-03-09T09:05:13.077Z,98937.46
2019-03-09T09:07:39.813Z,98930.69
2019-03-09T09:10:06.535Z,98934.59
2019-03-09T09:12:33.257Z,98934.48
2019-03-09T09:15:00.016Z,98933.91
2019-03-09T09:17:27.993Z,98930.98
2019-03-09T09:19:54.696Z,98931.62
2019-03-09T09:22:21.380Z,98927.37
2019-03-09T09:24:48.092Z,98938.99
2019-03-09T09:27:14.783Z,98951.17
2019-03-09T09:29:42.672Z,98936.88
2019-03-09T09:32:11.487Z,98947.44
2019-03-09T09:34:38.205Z,98945.58
2019-03-09T09:37:04.949Z,98962.52
2019-03-09T09:39:32.189Z,98970.71
2019-03-09T09:41:59.643Z,98959.84
2019-03-09T09:44:26.859Z,98974.41
2019-03-09T09:46:53.586Z,98984.66
2019-03-09T09:49:20.466Z,98993.89
2019-03-09T09:51:47.181Z,98982.80
2019-03-09T09:54:13.974Z,98972.58
2019-03-09T09:56:40.699Z,98982.88
2019-03-09T09:59:07.400Z,98984.56
2019-03-09T10:01:34.159Z,98994.27
2019-03-09T10:04:00.889Z,98991.71
2019-03-09T10:06:27.969Z,98992.67
2019-03-09T10:08:54.946Z,99000.06
2019-03-09T10:11:21.675Z,98998.56
2019-03-09T10:13:52.041Z,98997.00
2019-03-09T10:16:18.756Z,99009.48
2019-03-09T10:18:45.493Z,99013.17
2019-03-09T10:21:12.532Z,99012.12
2019-03-09T10:23:39.250Z,99006.95
2019-03-09T10:26:06.126Z,99008.80
2019-03-09T10:28:34.748Z,98991.44
2019-03-09T10:31:02.056Z,98978.25
2019-03-09T10:33:28.944Z,98976.19
2019-03-09T10:35:55.749Z,98987.26
2019-03-09T10:38:22.493Z,98961.10
2019-03-09T10:40:49.273Z,98964.83
2019-03-09T10:43:16.041Z,98964.33
2019-03-09T10:45:44.661Z,98957.45
2019-03-09T10:48:11.743Z,98945.25
2019-03-09T10:50:38.564Z,98928.89
2019-03-09T10:53:05.266Z,98907.53
2019-03-09T10:55:32.027Z,98917.31
2019-03-09T10:57:58.726Z,98934.28
2019-03-09T11:00:30.001Z,98939.57
2019-03-09T11:02:56.782Z,98953.06
2019-03-09T11:05:23.581Z,98961.52
2019-03-09T11:07:50.336Z,98962.03
2019-03-09T11:10:17.429Z,99004.06
2019-03-09T11:12:44.240Z,98977.41
2019-03-09T11:15:11.017Z,98965.79
2019-03-09T11:17:37.700Z,98985.82
2019-03-09T11:20:04.937Z,98979.70
2019-03-09T11:22:31.769Z,98978.38
2019-03-09T11:25:03.372Z,98977.56
2019-03-09T11:27:27.916Z,98970.23
2019-03-09T11:29:54.687Z,98964.41
2019-03-09T11:32:21.452Z,98950.93
2019-03-09T11:34:48.499Z,98958.59
2019-03-09T11:37:15.257Z,98963.14
2019-03-09T11:39:42.407Z,98967.08
2019-03-09T11:42:11.083Z,98984.00
2019-03-09T11:44:37.887Z,98966.07
2019-03-09T11:47:04.677Z,98960.58
2019-03-09T11:49:34.249Z,98951.59
2019-03-09T11:52:01.350Z,98957.14
2019-03-09T11:54:28.058Z,98959.02
2019-03-09T11:56:54.807Z,98951.88
2019-03-09T11:59:21.665Z,98952.69
2019-03-09T12:01:48.412Z,98926.27
2019-03-09T12:04:15.457Z,98907.23
2019-03-09T12:06:42.536Z,98936.01
2019-03-09T12:09:09.233Z,98940.51
2019-03-09T12:11:37.693Z,98933.37
2019-03-09T12:14:04.427Z,98929.97
2019-03-09T12:16:31.144Z,98915.45
2019-03-09T12:18:57.943Z,98917.81
2019-03-09T12:21:24.676Z,98904.63
2019-03-09T12:23:51.568Z,98900.11
2019-03-09T12:26:20.919Z,98874.48
2019-03-09T12:28:47.748Z,98810.33
2019-03-09T12:31:15.211Z,98793.18
2019-03-09T12:33:42.058Z,98844.40
2019-03-09T12:36:08.858Z,98869.23
2019-03-09T12:38:35.932Z,98843.61
2019-03-09T12:41:02.756Z,98834.91
2019-03-09T12:43:29.958Z,98828.82
2019-03-09T12:45:56.696Z,98831.20
2019-03-09T12:48:23.373Z,98792.39
2019-03-09T12:50:50.180Z,98820.61
2019-03-09T12:53:16.918Z,98784.44
2019-03-09T12:55:43.692Z,98786.03
2019-03-09T12:58:10.385Z,98785.77
2019-03-09T13:00:37.111Z,98767.28
2019-03-09T13:03:03.955Z,98749.59
2019-03-09T13:05:33.458Z,98724.52
2019-03-09T13:08:00.193Z,98723.20
2019-03-09T13:10:27.144Z,98732.16
2019-03-09T13:12:54.021Z,98745.64
2019-03-09T13:15:21.192Z,98744.84
2019-03-09T13:17:47.900Z,98758.05
2019-03-09T13:20:14.951Z,98777.30
2019-03-09T13:22:41.709Z,98760.95
2019-03-09T13:25:08.667Z,98754.08
2019-03-09T13:27:35.500Z,98750.66
2019-03-09T13:30:02.414Z,98746.18
2019-03-09T13:32:29.114Z,98758.30
2019-03-09T13:34:55.841Z,98761.48
2019-03-09T13:37:22.579Z,98748.55
2019-03-09T13:39:51.958Z,98754.34
2019-03-09T13:42:19.106Z,98742.74
2019-03-09T13:44:45.794Z,98721.62
2019-03-09T13:47:12.529Z,98735.87
2019-03-09T13:49:39.264Z,98704.73
2019-03-09T13:52:06.994Z,98707.63
2019-03-09T13:54:33.924Z,98697.84
2019-03-09T13:57:00.772Z,98695.73
2019-03-09T13:59:27.555Z,98684.62
2019-03-09T14:01:55.086Z,98698.06
2019-03-09T14:04:21.902Z,98683.02
2019-03-09T14:06:50.935Z,98682.49
2019-03-09T14:09:18.205Z,98671.12
2019-03-09T14:11:45.044Z,98681.94
2019-03-09T14:14:12.093Z,98680.86
2019-03-09T14:16:39.004Z,98700.70
2019-03-09T14:19:05.746Z,98687.74
2019-03-09T14:21:32.558Z,98643.87
2019-03-09T14:24:03.762Z,98650.52
2019-03-09T14:26:30.574Z,98658.44
2019-03-09T14:28:57.542Z,98667.69
2019-03-09T14:31:24.244Z,98666.89
2019-03-09T14:33:50.921Z,98662.93
2019-03-09T14:36:18.146Z,98657.69
2019-03-09T14:38:44.868Z,98676.72
2019-03-09T14:41:13.142Z,98665.12
2019-03-09T14:43:39.927Z,98665.64
2019-03-09T14:46:06.793Z,98682.80
2019-03-09T14:48:33.744Z,98702.61
2019-03-09T14:51:00.485Z,98707.34
2019-03-09T14:53:27.212Z,98712.10
2019-03-09T14:55:53.924Z,98716.59
2019-03-09T14:58:20.802Z,98708.91
2019-03-09T15:00:50.432Z,98697.27
2019-03-09T15:03:17.148Z,98696.95
2019-03-09T15:05:44.294Z,98690.30
2019-03-09T15:08:11.328Z,98701.91
2019-03-09T15:10:38.334Z,98671.27
2019-03-09T15:13:05.202Z,98676.81
2019-03-09T15:15:31.945Z,98671.05
2019-03-09T15:17:58.708Z,98657.55
2019-03-09T15:20:25.432Z,98635.09
2019-03-09T15:22:52.312Z,98646.46
2019-03-09T15:25:19.113Z,98648.07
2019-03-09T15:27:46.451Z,98653.36
2019-03-09T15:30:13.397Z,98651.77
2019-03-09T15:32:40.142Z,98654.13
2019-03-09T15:35:06.927Z,98650.66
2019-03-09T15:37:33.663Z,98656.98
2019-03-09T15:40:00.454Z,98669.67
2019-03-09T15:42:27.808Z,98697.14
2019-03-09T15:44:56.674Z,98692.13
2019-03-09T15:47:23.527Z,98689.48
2019-03-09T15:49:50.550Z,98697.43
2019-03-09T15:52:17.489Z,98706.41
2019-03-09T15:54:44.450Z,98687.89
2019-03-09T15:57:11.515Z,98686.28
2019-03-09T15:59:38.422Z,98682.02
2019-03-09T16:02:08.306Z,98665.66
2019-03-09T16:04:35.009Z,98695.53
2019-03-09T16:07:05.161Z,98676.50
2019-03-09T16:09:32.044Z,98699.47
2019-03-09T16:11:58.868Z,98688.63
2019-03-09T16:14:25.574Z,98661.66
2019-03-09T16:16:52.300Z,98676.19
2019-03-09T16:19:19.752Z,98673.55
2019-03-09T16:21:46.534Z,98691.03
2019-03-09T16:24:13.260Z,98664.03
2019-03-09T16:26:40.004Z,98667.99
2019-03-09T16:29:06.743Z,98673.85
2019-03-09T16:31:33.462Z,98696.05
2019-03-09T16:34:00.181Z,98686.27
2019-03-09T16:36:26.888Z,98697.64
2019-03-09T16:38:53.997Z,98707.70
2019-03-09T16:41:20.767Z,98692.34
2019-03-09T16:43:47.580Z,98697.89
2019-03-09T16:46:14.313Z,98739.67
2019-03-09T16:48:43.329Z,98747.60
2019-03-09T16:51:10.145Z,98727.25
2019-03-09T16:53:36.839Z,98752.09
2019-03-09T16:56:03.802Z,98743.91
2019-03-09T16:58:30.680Z,98729.45
2019-03-09T17:00:57.416Z,98769.55
2019-03-09T17:03:24.132Z,98769.28
2019-03-09T17:05:50.848Z,98765.31
2019-03-09T17:08:17.605Z,98764.78
2019-03-09T17:10:44.313Z,98785.66
2019-03-09T17:13:11.061Z,98801.53
2019-03-09T17:15:37.861Z,98768.77
2019-03-09T17:18:04.599Z,98772.73
2019-03-09T17:20:31.299Z,98777.25
2019-03-09T17:22:58.007Z,98778.05
2019-03-09T17:25:24.691Z,98833.30
2019-03-09T17:27:51.763Z,98807.66
2019-03-09T17:30:18.486Z,98801.05
2019-03-09T17:32:45.577Z,98805.57
2019-03-09T17:35:12.539Z,98829.36
2019-03-09T17:37:39.520Z,98828.84
2019-03-09T17:40:06.830Z,98834.89
2019-03-09T17:42:33.555Z,98873.77
2019-03-09T17:45:00.366Z,98864.00
2019-03-09T17:47:27.130Z,98865.56
2019-03-09T17:49:53.820Z,98883.81
2019-03-09T17:52:20.583Z,98885.66
2019-03-09T17:54:47.781Z,98900.73
2019-03-09T17:57:14.923Z,98895.44
2019-03-09T17:59:41.634Z,98897.83
2019-03-09T18:02:08.415Z,98911.30
2019-03-09T18:04:35.133Z,98905.73
2019-03-09T18:07:01.806Z,98907.59
2019-03-09T18:09:30.280Z,98914.20
2019-03-09T18:11:56.971Z,98910.23
2019-03-09T18:14:23.680Z,98935.07
2019-03-09T18:16:53.060Z,98929.26
2019-03-09T18:19:21.609Z,98924.25
2019-03-09T18:21:48.313Z,98937.73
2019-03-09T18:24:17.984Z,98941.17
2019-03-09T18:26:44.705Z,98949.63
2019-03-09T18:29:11.451Z,98940.65
2019-03-09T18:31:43.345Z,98951.20
2019-03-09T18:34:10.053Z,98942.69
2019-03-09T18:36:36.735Z,98961.78
2019-03-09T18:39:07.326Z,98957.04
2019-03-09T18:41:37.117Z,98957.81
2019-03-09T18:44:03.831Z,98943.55
2019-03-09T18:46:30.917Z,98976.86
2019-03-09T18:49:03.643Z,98973.68
2019-03-09T18:51:30.372Z,98983.99
2019-03-09T18:53:57.310Z,98984.25
2019-03-09T18:56:24.144Z,98978.95
2019-03-09T18:58:50.826Z,99005.67
2019-03-09T19:01:17.537Z,98986.36
2019-03-09T19:03:44.263Z,99009.10
2019-03-09T19:06:10.989Z,99001.70
2019-03-09T19:08:37.773Z,99005.14
2019-03-09T19:11:04.488Z,99016.23
2019-03-09T19:13:31.587Z,99019.15
2019-03-09T19:15:58.275Z,99026.83
2019-03-09T19:18:25.003Z,99021.00
2019-03-09T19:20:52.019Z,99028.93
2019-03-09T19:23:18.769Z,99024.72
2019-03-09T19:25:45.544Z,99031.59
2019-03-09T19:28:12.235Z,99036.09
2019-03-09T19:30:38.937Z,99044.53
2019-03-09T19:33:05.655Z,99083.15
2019-03-09T19:35:34.077Z,99044.82
2019-03-09T19:38:01.439Z,99041.89
2019-03-09T19:40:28.174Z,99059.38
2019-03-09T19:42:54.887Z,99049.84
2019-03-09T19:45:21.607Z,99056.72
2019-03-09T19:47:53.638Z,99058.28
2019-03-09T19:50:20.309Z,99053.28
2019-03-09T19:52:47.047Z,99058.81
2019-03-09T19:55:14.193Z,99062.80
2019-03-09T19:57:41.195Z,99060.42
2019-03-09T20:00:09.057Z,99068.61
2019-03-09T20:02:37.509Z,99055.66
2019-03-09T20:05:07.298Z,99052.22
2019-03-09T20:07:33.787Z,99049.84
2019-03-09T20:10:00.771Z,99051.17
2019-03-09T20:12:27.811Z,99055.91
2019-03-09T20:14:59.270Z,99052.47
2019-03-09T20:17:27.503Z,99052.76
2019-03-09T20:19:54.745Z,99054.60
2019-03-09T20:22:21.553Z,99073.36
2019-03-09T20:24:51.221Z,99052.50
2019-03-09T20:27:17.973Z,99055.39
2019-03-09T20:29:45.139Z,99055.41
2019-03-09T20:32:11.923Z,99051.94
2019-03-09T20:34:44.222Z,99063.04
2019-03-09T20:37:10.937Z,99064.37
2019-03-09T20:39:38.157Z,99086.86
2019-03-09T20:42:18.503Z,99050.34
2019-03-09T20:44:45.229Z,99055.37
2019-03-09T20:47:11.940Z,99056.45
2019-03-09T20:49:39.042Z,99050.89
2019-03-09T20:52:05.763Z,99054.59
2019-03-09T20:54:33.725Z,99069.41
2019-03-09T20:57:00.647Z,99053.55
2019-03-09T20:59:28.899Z,99051.67
2019-03-09T21:01:56.724Z,99053.00
2019-03-09T21:04:23.551Z,99051.16
2019-03-09T21:06:50.320Z,99057.50
2019-03-09T21:09:18.717Z,99051.95
2019-03-09T21:11:45.448Z,99059.12
2019-03-09T21:14:12.317Z,99064.39
2019-03-09T21:16:41.569Z,99066.23
2019-03-09T21:19:17.108Z,99057.78
2019-03-09T21:21:45.892Z,99081.58
2019-03-09T21:24:12.853Z,99058.57
2019-03-09T21:26:39.991Z,99046.13
2019-03-09T21:29:07.052Z,99053.56
2019-03-09T21:31:33.757Z,99049.31
2019-03-09T21:34:02.071Z,99058.06
2019-03-09T21:36:28.784Z,99061.48
2019-03-09T21:38:58.629Z,99057.78
2019-03-09T21:41:25.862Z,99059.36
2019-03-09T21:43:52.582Z,99053.81
2019-03-09T21:46:19.292Z,99059.90
2019-03-09T21:48:46.008Z,99054.88
2019-03-09T21:51:22.462Z,99063.86
2019-03-09T21:53:49.303Z,99088.74
2019-03-09T21:56:20.208Z,99051.98
2019-03-09T21:58:52.087Z,99054.36
2019-03-09T22:01:19.089Z,99059.89
2019-03-09T22:03:48.093Z,99052.75
2019-03-09T22:06:14.949Z,99054.08
2019-03-09T22:08:41.683Z,99047.47
2019-03-09T22:11:09.637Z,99061.76
2019-03-09T22:13:36.480Z,99051.70
2019-03-09T22:16:03.319Z,99046.94
2019-03-09T22:18:30.039Z,99045.89
2019-03-09T22:20:56.754Z,99048.02
2019-03-09T22:23:26.081Z,99042.44
2019-03-09T22:25:52.935Z,99041.37
2019-03-09T22:28:19.635Z,99046.14
2019-03-09T22:30:49.243Z,99047.98
2019-03-09T22:33:16.303Z,99037.41
2019-03-09T22:35:43.053Z,99029.23
2019-03-09T22:38:14.968Z,99032.13
2019-03-09T22:40:41.523Z,99022.08
2019-03-09T22:43:10.080Z,99022.34
2019-03-09T22:45:36.901Z,99011.78
2019-03-09T22:48:07.357Z,99030.27
2019-03-09T22:50:36.367Z,99017.84
2019-03-09T22:53:04.454Z,99002.50
2019-03-09T22:55:37.139Z,99013.89
2019-03-09T22:58:03.972Z,99019.44
2019-03-09T23:00:35.950Z,99001.70
2019-03-09T23:03:02.989Z,98997.48
2019-03-09T23:05:31.051Z,99003.29
2019-03-09T23:07:57.892Z,98999.34
2019-03-09T23:10:24.834Z,98999.34
2019-03-09T23:12:52.779Z,98983.75
2019-03-09T23:15:21.182Z,98982.40
2019-03-09T23:17:47.961Z,98986.63
2019-03-09T23:20:15.088Z,98984.26
2019-03-09T23:22:42.226Z,98993.52
2019-03-09T23:25:08.942Z,98988.22
2019-03-09T23:27:35.637Z,98979.49
2019-03-09T23:30:03.614Z,98985.31
2019-03-09T23:32:32.871Z,98966.55
2019-03-09T23:35:01.473Z,98972.09
2019-03-09T23:37:28.406Z,98964.70
2019-03-09T23:39:56.512Z,98948.31
2019-03-09T23:42:26.140Z,98945.64
2019-03-09T23:44:52.871Z,98947.76
2019-03-09T23:47:19.710Z,98936.67
2019-03-09T23:49:46.436Z,98940.63
2019-03-09T23:52:13.524Z,98933.23
2019-03-09T23:54:40.233Z,98931.38
2019-03-09T23:57:08.097Z,98931.38
2019-03-09T23:59:34.808Z,98931.89
